PRIVATE WETTERSTATION BILLIGHEIM-ALLFELD                       ZURCK
Wetterdaten: Samstag, 12.02.2022
Datum Zeit Temp. A. Temp. A. min Temp. A. max Feuchte A. Luftdruck Regen Wind Richtung Richtung Sonnenschein ET Solar Taupunkt Windchill Windben Empfang
12.02.2022 00:00 -2,1 C -2,1 C -1,9 C 92 % 1034,4 hPa 0,0 l/m 0,0 km/h (0 Bft) N 0 0 min 0,000 mm 0 W/m -3,2 C -2,1 C 0,0 km/h (0 Bft) 100 %
12.02.2022 00:10 -2,1 C -2,1 C -2,1 C 92 % 1034,4 hPa 0,0 l/m 0,0 km/h (0 Bft) N 0 0 min 0,000 mm 0 W/m -3,2 C -2,1 C 0,0 km/h (0 Bft) 99 %
12.02.2022 00:20 -2,2 C -2,2 C -2,1 C 92 % 1034,5 hPa 0,0 l/m 0,0 km/h (0 Bft) N 0 0 min 0,000 mm 0 W/m -3,3 C -2,2 C 0,0 km/h (0 Bft) 100 %
12.02.2022 00:30 -2,4 C -2,4 C -2,2 C 92 % 1034,2 hPa 0,0 l/m 0,0 km/h (0 Bft) N 0 0 min 0,000 mm 0 W/m -3,5 C -2,4 C 0,0 km/h (0 Bft) 100 %
12.02.2022 00:40 -2,4 C -2,5 C -2,4 C 92 % 1034,3 hPa 0,0 l/m 0,0 km/h (0 Bft) N 0 0 min 0,000 mm 0 W/m -3,5 C -2,4 C 0,0 km/h (0 Bft) 98 %
12.02.2022 00:50 -2,4 C -2,4 C -2,4 C 92 % 1034,2 hPa 0,0 l/m 0,0 km/h (0 Bft) N 0 0 min 0,000 mm 0 W/m -3,5 C -2,4 C 0,0 km/h (0 Bft) 98 %
12.02.2022 01:00 -2,5 C -2,5 C -2,4 C 92 % 1034,0 hPa 0,0 l/m 0,0 km/h (0 Bft) N 0 0 min 0,000 mm 0 W/m -3,6 C -2,5 C 0,0 km/h (0 Bft) 97 %
12.02.2022 01:10 -2,6 C -2,6 C -2,5 C 92 % 1034,0 hPa 0,0 l/m 0,0 km/h (0 Bft) N 0 0 min 0,000 mm 0 W/m -3,7 C -2,6 C 0,0 km/h (0 Bft) 98 %
12.02.2022 01:20 -2,8 C -2,8 C -2,6 C 92 % 1034,0 hPa 0,0 l/m 0,0 km/h (0 Bft) N 0 0 min 0,000 mm 0 W/m -3,9 C -2,8 C 0,0 km/h (0 Bft) 98 %
12.02.2022 01:30 -3,0 C -3,0 C -2,8 C 92 % 1033,9 hPa 0,0 l/m 0,0 km/h (0 Bft) N 0 0 min 0,000 mm 0 W/m -4,1 C -3,0 C 0,0 km/h (0 Bft) 98 %
12.02.2022 01:40 -3,2 C -3,2 C -3,0 C 92 % 1033,8 hPa 0,0 l/m 0,0 km/h (0 Bft) N 0 0 min 0,000 mm 0 W/m -4,3 C -3,2 C 0,0 km/h (0 Bft) 97 %
12.02.2022 01:50 -3,3 C -3,3 C -3,2 C 92 % 1033,8 hPa 0,0 l/m 0,0 km/h (0 Bft) N 0 0 min 0,000 mm 0 W/m -4,4 C -3,3 C 0,0 km/h (0 Bft) 98 %
12.02.2022 02:00 -3,4 C -3,4 C -3,3 C 92 % 1033,9 hPa 0,0 l/m 0,0 km/h (0 Bft) W-NW 292 0 min 0,000 mm 0 W/m -4,5 C -3,4 C 4,8 km/h (1 Bft) 97 %
12.02.2022 02:10 -3,6 C -3,6 C -3,4 C 92 % 1033,8 hPa 0,0 l/m 1,6 km/h (1 Bft) W-NW 292 0 min 0,000 mm 0 W/m -4,7 C -3,6 C 4,8 km/h (1 Bft) 97 %
12.02.2022 02:20 -3,7 C -3,7 C -3,6 C 92 % 1033,8 hPa 0,0 l/m 0,0 km/h (0 Bft) N 0 0 min 0,000 mm 0 W/m -4,8 C -3,7 C 0,0 km/h (0 Bft) 98 %
12.02.2022 02:30 -3,8 C -3,8 C -3,7 C 92 % 1033,7 hPa 0,0 l/m 0,0 km/h (0 Bft) N 0 0 min 0,000 mm 0 W/m -4,9 C -3,8 C 0,0 km/h (0 Bft) 98 %
12.02.2022 02:40 -3,7 C -3,8 C -3,7 C 92 % 1033,7 hPa 0,0 l/m 0,0 km/h (0 Bft) N 0 0 min 0,000 mm 0 W/m -4,8 C -3,7 C 0,0 km/h (0 Bft) 98 %
12.02.2022 02:50 -3,7 C -3,7 C -3,7 C 92 % 1033,7 hPa 0,0 l/m 0,0 km/h (0 Bft) N 0 0 min 0,000 mm 0 W/m -4,8 C -3,7 C 0,0 km/h (0 Bft) 98 %
12.02.2022 03:00 -3,8 C -3,8 C -3,7 C 92 % 1033,7 hPa 0,0 l/m 0,0 km/h (0 Bft) N 0 0 min 0,000 mm 0 W/m -4,9 C -3,8 C 0,0 km/h (0 Bft) 98 %
12.02.2022 03:10 -3,9 C -3,9 C -3,8 C 92 % 1033,6 hPa 0,0 l/m 0,0 km/h (0 Bft) N 0 0 min 0,000 mm 0 W/m -5,0 C -3,9 C 0,0 km/h (0 Bft) 98 %
12.02.2022 03:20 -3,9 C -3,9 C -3,9 C 92 % 1033,4 hPa 0,0 l/m 0,0 km/h (0 Bft) N 0 0 min 0,000 mm 0 W/m -5,0 C -3,9 C 0,0 km/h (0 Bft) 96 %
12.02.2022 03:30 -4,1 C -4,1 C -3,9 C 92 % 1033,3 hPa 0,0 l/m 0,0 km/h (0 Bft) N 0 0 min 0,000 mm 0 W/m -5,2 C -4,1 C 0,0 km/h (0 Bft) 97 %
12.02.2022 03:40 -4,2 C -4,2 C -4,1 C 92 % 1033,1 hPa 0,0 l/m 0,0 km/h (0 Bft) N 0 0 min 0,000 mm 0 W/m -5,3 C -4,2 C 0,0 km/h (0 Bft) 97 %
12.02.2022 03:50 -4,1 C -4,2 C -4,1 C 92 % 1033,2 hPa 0,0 l/m 0,0 km/h (0 Bft) N 0 0 min 0,000 mm 0 W/m -5,2 C -4,1 C 0,0 km/h (0 Bft) 98 %
12.02.2022 04:00 -4,2 C -4,2 C -4,1 C 92 % 1033,2 hPa 0,0 l/m 0,0 km/h (0 Bft) N 0 0 min 0,000 mm 0 W/m -5,3 C -4,2 C 0,0 km/h (0 Bft) 97 %
12.02.2022 04:10 -4,3 C -4,3 C -4,2 C 92 % 1033,2 hPa 0,0 l/m 0,0 km/h (0 Bft) N 0 0 min 0,000 mm 0 W/m -5,4 C -4,3 C 0,0 km/h (0 Bft) 98 %
12.02.2022 04:20 -4,3 C -4,3 C -4,3 C 92 % 1033,3 hPa 0,0 l/m 0,0 km/h (0 Bft) N 0 0 min 0,000 mm 0 W/m -5,4 C -4,3 C 0,0 km/h (0 Bft) 99 %
12.02.2022 04:30 -4,4 C -4,4 C -4,3 C 92 % 1033,1 hPa 0,0 l/m 0,0 km/h (0 Bft) N 0 0 min 0,000 mm 0 W/m -5,5 C -4,4 C 0,0 km/h (0 Bft) 99 %
12.02.2022 04:40 -4,4 C -4,4 C -4,4 C 92 % 1033,1 hPa 0,0 l/m 0,0 km/h (0 Bft) N 0 0 min 0,000 mm 0 W/m -5,5 C -4,4 C 0,0 km/h (0 Bft) 99 %
12.02.2022 04:50 -4,4 C -4,4 C -4,4 C 92 % 1033,1 hPa 0,0 l/m 0,0 km/h (0 Bft) N 0 0 min 0,000 mm 0 W/m -5,5 C -4,4 C 0,0 km/h (0 Bft) 100 %
12.02.2022 05:00 -4,4 C -4,4 C -4,4 C 92 % 1032,9 hPa 0,0 l/m 0,0 km/h (0 Bft) N 0 0 min 0,000 mm 0 W/m -5,5 C -4,4 C 0,0 km/h (0 Bft) 100 %
12.02.2022 05:10 -4,4 C -4,4 C -4,4 C 92 % 1032,9 hPa 0,0 l/m 0,0 km/h (0 Bft) N 0 0 min 0,000 mm 0 W/m -5,5 C -4,4 C 0,0 km/h (0 Bft) 100 %
12.02.2022 05:20 -4,4 C -4,4 C -4,4 C 92 % 1032,8 hPa 0,0 l/m 0,0 km/h (0 Bft) N 0 0 min 0,000 mm 0 W/m -5,5 C -4,4 C 0,0 km/h (0 Bft) 100 %
12.02.2022 05:30 -4,6 C -4,6 C -4,4 C 92 % 1032,7 hPa 0,0 l/m 0,0 km/h (0 Bft) W-NW 292 0 min 0,000 mm 0 W/m -5,7 C -4,6 C 3,2 km/h (1 Bft) 100 %
12.02.2022 05:40 -4,6 C -4,6 C -4,6 C 92 % 1032,6 hPa 0,0 l/m 0,0 km/h (0 Bft) N 0 0 min 0,000 mm 0 W/m -5,7 C -4,6 C 0,0 km/h (0 Bft) 99 %
12.02.2022 05:50 -4,6 C -4,6 C -4,6 C 92 % 1032,4 hPa 0,0 l/m 0,0 km/h (0 Bft) N 0 0 min 0,000 mm 0 W/m -5,7 C -4,6 C 0,0 km/h (0 Bft) 100 %
12.02.2022 06:00 -4,6 C -4,6 C -4,6 C 92 % 1032,3 hPa 0,0 l/m 0,0 km/h (0 Bft) N 0 0 min 0,000 mm 0 W/m -5,7 C -4,6 C 0,0 km/h (0 Bft) 100 %
12.02.2022 06:10 -4,6 C -4,6 C -4,6 C 92 % 1032,3 hPa 0,0 l/m 0,0 km/h (0 Bft) N 0 0 min 0,000 mm 0 W/m -5,7 C -4,6 C 0,0 km/h (0 Bft) 100 %
12.02.2022 06:20 -4,6 C -4,6 C -4,6 C 92 % 1032,3 hPa 0,0 l/m 0,0 km/h (0 Bft) N 0 0 min 0,000 mm 0 W/m -5,7 C -4,6 C 0,0 km/h (0 Bft) 100 %
12.02.2022 06:30 -4,6 C -4,6 C -4,6 C 92 % 1032,3 hPa 0,0 l/m 0,0 km/h (0 Bft) N 0 0 min 0,000 mm 0 W/m -5,7 C -4,6 C 0,0 km/h (0 Bft) 100 %
12.02.2022 06:40 -4,6 C -4,6 C -4,6 C 92 % 1032,2 hPa 0,0 l/m 0,0 km/h (0 Bft) N 0 0 min 0,000 mm 0 W/m -5,7 C -4,6 C 0,0 km/h (0 Bft) 100 %
12.02.2022 06:50 -4,6 C -4,6 C -4,6 C 92 % 1032,1 hPa 0,0 l/m 0,0 km/h (0 Bft) N 0 0 min 0,000 mm 0 W/m -5,7 C -4,6 C 0,0 km/h (0 Bft) 100 %
12.02.2022 07:00 -4,6 C -4,6 C -4,6 C 92 % 1032,0 hPa 0,0 l/m 0,0 km/h (0 Bft) W-NW 292 0 min 0,000 mm 0 W/m -5,7 C -4,6 C 3,2 km/h (1 Bft) 100 %
12.02.2022 07:10 -4,6 C -4,6 C -4,6 C 92 % 1032,0 hPa 0,0 l/m 1,6 km/h (1 Bft) W-NW 292 0 min 0,000 mm 0 W/m -5,7 C -4,6 C 3,2 km/h (1 Bft) 100 %
12.02.2022 07:20 -4,6 C -4,6 C -4,6 C 92 % 1031,9 hPa 0,0 l/m 0,0 km/h (0 Bft) N 0 0 min 0,000 mm 0 W/m -5,7 C -4,6 C 0,0 km/h (0 Bft) 100 %
12.02.2022 07:30 -4,4 C -4,6 C -4,4 C 92 % 1031,9 hPa 0,0 l/m 0,0 km/h (0 Bft) N 0 0 min 0,000 mm 0 W/m -5,5 C -4,4 C 0,0 km/h (0 Bft) 100 %
12.02.2022 07:40 -4,3 C -4,4 C -4,3 C 92 % 1031,9 hPa 0,0 l/m 0,0 km/h (0 Bft) W-NW 292 0 min 0,000 mm 5 W/m -5,4 C -4,3 C 3,2 km/h (1 Bft) 100 %
12.02.2022 07:50 -4,4 C -4,4 C -4,3 C 92 % 1031,9 hPa 0,0 l/m 0,0 km/h (0 Bft) W-NW 292 0 min 0,000 mm 7 W/m -5,5 C -4,4 C 3,2 km/h (1 Bft) 99 %
12.02.2022 08:00 -4,0 C -4,4 C -4,0 C 92 % 1031,8 hPa 0,0 l/m 0,0 km/h (0 Bft) W-NW 292 0 min 0,000 mm 11 W/m -5,1 C -4,0 C 3,2 km/h (1 Bft) 100 %
12.02.2022 08:10 -4,0 C -4,1 C -4,0 C 92 % 1031,9 hPa 0,0 l/m 1,6 km/h (1 Bft) W-NW 292 0 min 0,000 mm 14 W/m -5,1 C -4,0 C 4,8 km/h (1 Bft) 100 %
12.02.2022 08:20 -4,0 C -4,1 C -4,0 C 92 % 1031,9 hPa 0,0 l/m 0,0 km/h (0 Bft) N 0 0 min 0,000 mm 16 W/m -5,1 C -4,0 C 0,0 km/h (0 Bft) 100 %
12.02.2022 08:30 -4,0 C -4,0 C -4,0 C 92 % 1031,8 hPa 0,0 l/m 0,0 km/h (0 Bft) N 0 0 min 0,000 mm 18 W/m -5,1 C -4,0 C 0,0 km/h (0 Bft) 100 %
12.02.2022 08:40 -3,9 C -4,0 C -3,9 C 92 % 1031,9 hPa 0,0 l/m 0,0 km/h (0 Bft) N 0 0 min 0,000 mm 23 W/m -5,0 C -3,9 C 0,0 km/h (0 Bft) 100 %
12.02.2022 08:50 -3,7 C -3,9 C -3,7 C 92 % 1031,9 hPa 0,0 l/m 0,0 km/h (0 Bft) N 0 0 min 0,000 mm 72 W/m -4,8 C -3,7 C 0,0 km/h (0 Bft) 100 %
12.02.2022 09:00 -2,9 C -3,6 C -2,9 C 92 % 1031,8 hPa 0,0 l/m 0,0 km/h (0 Bft) N 0 0 min 0,000 mm 123 W/m -4,0 C -2,9 C 0,0 km/h (0 Bft) 100 %
12.02.2022 09:10 -2,1 C -2,9 C -2,1 C 92 % 1031,9 hPa 0,0 l/m 0,0 km/h (0 Bft) N 0 10 min 0,000 mm 156 W/m -3,2 C -2,1 C 0,0 km/h (0 Bft) 100 %
12.02.2022 09:20 -1,3 C -2,1 C -1,3 C 92 % 1031,8 hPa 0,0 l/m 0,0 km/h (0 Bft) O-NO 67 10 min 0,000 mm 190 W/m -2,4 C -1,3 C 8,0 km/h (2 Bft) 100 %
12.02.2022 09:30 -0,7 C -1,3 C -0,7 C 92 % 1031,8 hPa 0,0 l/m 0,0 km/h (0 Bft) N-NO 22 10 min 0,000 mm 248 W/m -1,8 C -0,7 C 6,4 km/h (2 Bft) 100 %
12.02.2022 09:40 -0,1 C -0,7 C -0,1 C 92 % 1031,8 hPa 0,0 l/m 0,0 km/h (0 Bft) N 0 10 min 0,000 mm 262 W/m -1,2 C -0,1 C 0,0 km/h (0 Bft) 100 %
12.02.2022 09:50 0,7 C -0,1 C 0,7 C 92 % 1031,8 hPa 0,0 l/m 0,0 km/h (0 Bft) O-NO 67 10 min 0,000 mm 267 W/m -0,4 C 0,7 C 4,8 km/h (1 Bft) 100 %
12.02.2022 10:00 0,9 C 0,7 C 0,9 C 92 % 1031,7 hPa 0,0 l/m 3,2 km/h (1 Bft) O 90 10 min 0,076 mm 287 W/m -0,2 C 0,9 C 9,7 km/h (2 Bft) 100 %
12.02.2022 10:10 1,2 C 1,0 C 1,2 C 92 % 1031,7 hPa 0,0 l/m 3,2 km/h (1 Bft) SO 135 10 min 0,000 mm 301 W/m 0,0 C 1,2 C 11,3 km/h (2 Bft) 100 %
12.02.2022 10:20 1,5 C 1,2 C 1,5 C 90 % 1031,5 hPa 0,0 l/m 3,2 km/h (1 Bft) O-SO 112 10 min 0,000 mm 315 W/m 0,0 C 1,5 C 9,7 km/h (2 Bft) 100 %
12.02.2022 10:30 2,1 C 1,5 C 2,1 C 90 % 1031,6 hPa 0,0 l/m 1,6 km/h (1 Bft) O-SO 112 10 min 0,000 mm 332 W/m 0,6 C 2,1 C 14,5 km/h (3 Bft) 99 %
12.02.2022 10:40 2,0 C 1,9 C 2,1 C 87 % 1031,5 hPa 0,0 l/m 4,8 km/h (1 Bft) SO 135 10 min 0,000 mm 350 W/m 0,1 C 2,0 C 16,1 km/h (3 Bft) 100 %
12.02.2022 10:50 2,2 C 1,9 C 2,2 C 88 % 1031,3 hPa 0,0 l/m 3,2 km/h (1 Bft) SO 135 10 min 0,000 mm 359 W/m 0,4 C 2,2 C 11,3 km/h (2 Bft) 100 %
12.02.2022 11:00 2,4 C 2,2 C 2,4 C 87 % 1031,3 hPa 0,0 l/m 4,8 km/h (1 Bft) O-SO 112 10 min 0,127 mm 371 W/m 0,5 C 2,4 C 16,1 km/h (3 Bft) 100 %
12.02.2022 11:10 2,7 C 2,4 C 2,7 C 85 % 1031,3 hPa 0,0 l/m 3,2 km/h (1 Bft) O-SO 112 10 min 0,000 mm 394 W/m 0,4 C 2,7 C 12,9 km/h (3 Bft) 100 %
12.02.2022 11:20 3,1 C 2,7 C 3,1 C 85 % 1031,2 hPa 0,0 l/m 1,6 km/h (1 Bft) O-NO 67 10 min 0,000 mm 403 W/m 0,8 C 3,1 C 9,7 km/h (2 Bft) 100 %
12.02.2022 11:30 3,4 C 3,1 C 3,4 C 83 % 1031,1 hPa 0,0 l/m 1,6 km/h (1 Bft) O-SO 112 10 min 0,000 mm 422 W/m 0,8 C 3,4 C 9,7 km/h (2 Bft) 100 %
12.02.2022 11:40 3,8 C 3,4 C 3,8 C 81 % 1031,0 hPa 0,0 l/m 1,6 km/h (1 Bft) SO 135 10 min 0,000 mm 427 W/m 0,8 C 3,8 C 8,0 km/h (2 Bft) 100 %
12.02.2022 11:50 4,1 C 3,8 C 4,1 C 80 % 1030,8 hPa 0,0 l/m 3,2 km/h (1 Bft) SO 135 10 min 0,000 mm 424 W/m 1,0 C 4,1 C 14,5 km/h (3 Bft) 100 %
12.02.2022 12:00 4,0 C 4,0 C 4,1 C 79 % 1030,5 hPa 0,0 l/m 4,8 km/h (1 Bft) O 90 10 min 0,152 mm 427 W/m 0,7 C 4,0 C 16,1 km/h (3 Bft) 100 %
12.02.2022 12:10 4,3 C 4,0 C 4,3 C 80 % 1030,3 hPa 0,0 l/m 2,8 km/h (1 Bft) O-SO 117 10 min 0,001 mm 403 W/m 1,2 C 4,3 C 9,7 km/h (2 Bft) 100 %
12.02.2022 12:20 4,5 C 4,3 C 4,5 C 78 % 1030,1 hPa 0,0 l/m 2,1 km/h (1 Bft) SO 124 10 min 0,000 mm 418 W/m 1,0 C 4,5 C 16,1 km/h (3 Bft) 98 %
12.02.2022 12:30 4,8 C 4,5 C 4,8 C 77 % 1029,8 hPa 0,0 l/m 1,5 km/h (1 Bft) SO 133 10 min 0,000 mm 290 W/m 1,1 C 4,8 C 6,4 km/h (2 Bft) 98 %
12.02.2022 12:40 5,4 C 4,8 C 5,4 C 77 % 1029,6 hPa 0,0 l/m 0,8 km/h (0 Bft) O-SO 107 10 min 0,000 mm 422 W/m 1,7 C 5,4 C 6,4 km/h (2 Bft) 97 %
12.02.2022 12:50 5,5 C 5,4 C 5,5 C 74 % 1029,3 hPa 0,0 l/m 3,6 km/h (1 Bft) O-SO 111 10 min 0,000 mm 371 W/m 1,2 C 5,5 C 11,3 km/h (2 Bft) 98 %
12.02.2022 13:00 5,4 C 5,4 C 5,5 C 73 % 1029,0 hPa 0,0 l/m 2,4 km/h (1 Bft) O-SO 105 10 min 0,000 mm 385 W/m 1,0 C 5,4 C 14,5 km/h (3 Bft) 97 %
12.02.2022 13:10 5,4 C 5,4 C 5,4 C 72 % 1029,0 hPa 0,0 l/m 3,1 km/h (1 Bft) O-SO 111 10 min 0,152 mm 339 W/m 0,8 C 5,4 C 11,3 km/h (2 Bft) 98 %
12.02.2022 13:20 5,9 C 5,4 C 5,9 C 71 % 1028,9 hPa 0,0 l/m 1,8 km/h (1 Bft) O-NO 65 10 min 0,000 mm 411 W/m 1,1 C 5,9 C 16,1 km/h (3 Bft) 97 %
12.02.2022 13:30 5,7 C 5,7 C 5,9 C 70 % 1028,7 hPa 0,0 l/m 4,1 km/h (1 Bft) O 80 10 min 0,000 mm 385 W/m 0,7 C 5,7 C 16,1 km/h (3 Bft) 98 %
12.02.2022 13:40 5,7 C 5,7 C 5,7 C 70 % 1028,7 hPa 0,0 l/m 1,7 km/h (1 Bft) SO 136 10 min 0,000 mm 292 W/m 0,7 C 5,7 C 14,5 km/h (3 Bft) 97 %
12.02.2022 13:50 5,8 C 5,7 C 5,8 C 69 % 1028,5 hPa 0,0 l/m 2,4 km/h (1 Bft) SO 130 10 min 0,000 mm 283 W/m 0,6 C 5,8 C 12,9 km/h (3 Bft) 98 %
12.02.2022 14:00 5,8 C 5,8 C 5,8 C 70 % 1028,4 hPa 0,0 l/m 2,6 km/h (1 Bft) S 191 10 min 0,152 mm 341 W/m 0,8 C 5,8 C 12,9 km/h (3 Bft) 97 %
12.02.2022 14:10 6,0 C 5,8 C 6,0 C 70 % 1028,3 hPa 0,0 l/m 1,5 km/h (1 Bft) O 91 10 min 0,000 mm 329 W/m 1,0 C 6,0 C 9,7 km/h (2 Bft) 89 %
12.02.2022 14:20 6,0 C 5,9 C 6,0 C 71 % 1028,1 hPa 0,0 l/m 1,8 km/h (1 Bft) SO 142 10 min 0,000 mm 357 W/m 1,1 C 6,0 C 16,1 km/h (3 Bft) 98 %
12.02.2022 14:30 6,1 C 6,0 C 6,1 C 67 % 1028,0 hPa 0,0 l/m 1,7 km/h (1 Bft) SO 140 10 min 0,000 mm 304 W/m 0,4 C 6,1 C 14,5 km/h (3 Bft) 97 %
12.02.2022 14:40 6,1 C 6,1 C 6,1 C 66 % 1027,9 hPa 0,0 l/m 2,1 km/h (1 Bft) O-SO 121 10 min 0,000 mm 258 W/m 0,2 C 6,1 C 17,7 km/h (3 Bft) 98 %
12.02.2022 14:50 6,2 C 6,1 C 6,2 C 64 % 1027,7 hPa 0,0 l/m 3,0 km/h (1 Bft) O 100 10 min 0,000 mm 297 W/m -0,1 C 6,2 C 17,7 km/h (3 Bft) 98 %
12.02.2022 15:00 6,2 C 6,1 C 6,2 C 64 % 1027,4 hPa 0,0 l/m 3,1 km/h (1 Bft) O-SO 121 10 min 0,127 mm 299 W/m -0,1 C 6,2 C 16,1 km/h (3 Bft) 98 %
12.02.2022 15:10 6,2 C 6,2 C 6,2 C 62 % 1027,4 hPa 0,0 l/m 2,7 km/h (1 Bft) SO 133 10 min 0,000 mm 237 W/m -0,5 C 6,2 C 14,5 km/h (3 Bft) 97 %
12.02.2022 15:20 6,1 C 6,1 C 6,2 C 62 % 1027,2 hPa 0,0 l/m 3,0 km/h (1 Bft) O-SO 103 10 min 0,000 mm 179 W/m -0,6 C 6,1 C 12,9 km/h (3 Bft) 97 %
12.02.2022 15:30 6,3 C 6,1 C 6,3 C 62 % 1027,3 hPa 0,0 l/m 0,1 km/h (0 Bft) SO 142 10 min 0,000 mm 171 W/m -0,4 C 6,3 C 6,4 km/h (2 Bft) 98 %
12.02.2022 15:40 6,2 C 6,2 C 6,4 C 59 % 1027,1 hPa 0,0 l/m 2,2 km/h (1 Bft) O-SO 118 0 min 0,000 mm 127 W/m -1,2 C 6,2 C 16,1 km/h (3 Bft) 98 %
12.02.2022 15:50 5,9 C 5,9 C 6,2 C 59 % 1027,0 hPa 0,0 l/m 2,9 km/h (1 Bft) SO 142 0 min 0,000 mm 111 W/m -1,5 C 5,9 C 12,9 km/h (3 Bft) 98 %
12.02.2022 16:00 5,9 C 5,9 C 5,9 C 60 % 1026,8 hPa 0,0 l/m 0,0 km/h (0 Bft) SO 143 0 min 0,077 mm 113 W/m -1,3 C 5,9 C 1,6 km/h (1 Bft) 97 %
12.02.2022 16:10 5,9 C 5,9 C 5,9 C 62 % 1026,7 hPa 0,0 l/m 0,9 km/h (0 Bft) SO 130 0 min 0,000 mm 123 W/m -0,8 C 5,9 C 11,3 km/h (2 Bft) 97 %
12.02.2022 16:20 5,8 C 5,8 C 5,9 C 62 % 1026,7 hPa 0,0 l/m 1,0 km/h (0 Bft) O-SO 117 0 min 0,000 mm 118 W/m -0,9 C 5,8 C 9,7 km/h (2 Bft) 99 %
12.02.2022 16:30 5,9 C 5,8 C 5,9 C 62 % 1026,4 hPa 0,0 l/m 1,9 km/h (1 Bft) SO 133 0 min 0,000 mm 123 W/m -0,8 C 5,9 C 14,5 km/h (3 Bft) 100 %
12.02.2022 16:40 5,9 C 5,9 C 5,9 C 62 % 1026,3 hPa 0,0 l/m 0,8 km/h (0 Bft) O-SO 118 0 min 0,000 mm 97 W/m -0,8 C 5,9 C 9,7 km/h (2 Bft) 100 %
12.02.2022 16:50 6,0 C 5,9 C 6,0 C 63 % 1026,2 hPa 0,0 l/m 0,4 km/h (0 Bft) O 101 0 min 0,000 mm 67 W/m -0,5 C 6,0 C 9,7 km/h (2 Bft) 100 %
12.02.2022 17:00 5,8 C 5,8 C 6,0 C 63 % 1026,2 hPa 0,0 l/m 0,4 km/h (0 Bft) O-SO 113 0 min 0,050 mm 42 W/m -0,7 C 5,8 C 6,4 km/h (2 Bft) 100 %
12.02.2022 17:10 5,6 C 5,6 C 5,8 C 64 % 1026,0 hPa 0,0 l/m 0,8 km/h (0 Bft) SO 126 0 min 0,000 mm 32 W/m -0,7 C 5,6 C 6,4 km/h (2 Bft) 100 %
12.02.2022 17:20 5,3 C 5,3 C 5,6 C 64 % 1026,1 hPa 0,0 l/m 0,3 km/h (0 Bft) SO 126 0 min 0,000 mm 21 W/m -0,9 C 5,3 C 4,8 km/h (1 Bft) 100 %
12.02.2022 17:30 5,0 C 5,0 C 5,3 C 65 % 1026,1 hPa 0,0 l/m 0,0 km/h (0 Bft) SO 125 0 min 0,000 mm 11 W/m -1,0 C 5,0 C 0,0 km/h (0 Bft) 100 %
12.02.2022 17:40 4,7 C 4,7 C 5,0 C 67 % 1026,2 hPa 0,0 l/m 0,0 km/h (0 Bft) SO 125 0 min 0,000 mm 0 W/m -0,9 C 4,7 C 1,6 km/h (1 Bft) 100 %
12.02.2022 17:50 4,4 C 4,4 C 4,7 C 67 % 1026,2 hPa 0,0 l/m 0,0 km/h (0 Bft) SO 124 0 min 0,000 mm 0 W/m -1,2 C 4,4 C 0,0 km/h (0 Bft) 100 %
12.02.2022 18:00 4,3 C 4,3 C 4,4 C 67 % 1026,1 hPa 0,0 l/m 0,2 km/h (0 Bft) O-SO 123 0 min 0,000 mm 0 W/m -1,3 C 4,3 C 6,4 km/h (2 Bft) 99 %
12.02.2022 18:10 4,1 C 4,1 C 4,3 C 68 % 1026,1 hPa 0,0 l/m 0,1 km/h (0 Bft) O-SO 122 0 min 0,000 mm 0 W/m -1,3 C 4,1 C 3,2 km/h (1 Bft) 100 %
12.02.2022 18:20 3,9 C 3,9 C 4,1 C 68 % 1026,1 hPa 0,0 l/m 0,7 km/h (0 Bft) SO 127 0 min 0,000 mm 0 W/m -1,5 C 3,9 C 8,0 km/h (2 Bft) 100 %
12.02.2022 18:30 3,8 C 3,8 C 3,9 C 69 % 1026,1 hPa 0,0 l/m 0,2 km/h (0 Bft) SO 126 0 min 0,000 mm 0 W/m -1,4 C 3,8 C 6,4 km/h (2 Bft) 100 %
12.02.2022 18:40 3,6 C 3,6 C 3,8 C 70 % 1026,0 hPa 0,0 l/m 0,0 km/h (0 Bft) SO 126 0 min 0,000 mm 0 W/m -1,3 C 3,6 C 0,0 km/h (0 Bft) 100 %
12.02.2022 18:50 3,6 C 3,6 C 3,6 C 70 % 1025,9 hPa 0,0 l/m 0,0 km/h (0 Bft) O-SO 122 0 min 0,000 mm 0 W/m -1,3 C 3,6 C 1,6 km/h (1 Bft) 99 %
12.02.2022 19:00 3,6 C 3,6 C 3,6 C 70 % 1025,9 hPa 0,2 l/m 1,1 km/h (1 Bft) O-SO 112 0 min 0,026 mm 0 W/m -1,3 C 3,6 C 9,7 km/h (2 Bft) 91 %
12.02.2022 19:10 3,7 C 3,6 C 3,7 C 70 % 1025,8 hPa 0,0 l/m 0,5 km/h (0 Bft) SO 126 0 min 0,000 mm 0 W/m -1,3 C 3,7 C 6,4 km/h (2 Bft) 99 %
12.02.2022 19:20 3,5 C 3,5 C 3,7 C 70 % 1025,7 hPa 0,0 l/m 0,0 km/h (0 Bft) O-SO 121 0 min 0,000 mm 0 W/m -1,4 C 3,5 C 0,0 km/h (0 Bft) 100 %
12.02.2022 19:30 3,3 C 3,3 C 3,5 C 71 % 1025,5 hPa 0,0 l/m 0,1 km/h (0 Bft) O-SO 118 0 min 0,000 mm 0 W/m -1,4 C 3,3 C 3,2 km/h (1 Bft) 100 %
12.02.2022 19:40 3,2 C 3,2 C 3,3 C 71 % 1025,3 hPa 0,0 l/m 0,1 km/h (0 Bft) O-SO 118 0 min 0,000 mm 0 W/m -1,5 C 3,2 C 4,8 km/h (1 Bft) 99 %
12.02.2022 19:50 3,1 C 3,1 C 3,2 C 72 % 1025,2 hPa 0,0 l/m 0,1 km/h (0 Bft) O-SO 119 0 min 0,000 mm 0 W/m -1,4 C 3,1 C 4,8 km/h (1 Bft) 99 %
12.02.2022 20:00 2,9 C 2,9 C 3,1 C 73 % 1025,1 hPa 0,0 l/m 0,1 km/h (0 Bft) SO 125 0 min 0,025 mm 0 W/m -1,5 C 2,9 C 3,2 km/h (1 Bft) 100 %
12.02.2022 20:10 2,6 C 2,6 C 2,9 C 73 % 1025,0 hPa 0,0 l/m 0,0 km/h (0 Bft) O-SO 122 0 min 0,000 mm 0 W/m -1,7 C 2,6 C 3,2 km/h (1 Bft) 100 %
12.02.2022 20:20 2,5 C 2,5 C 2,6 C 75 % 1024,9 hPa 0,0 l/m 0,8 km/h (0 Bft) SO 127 0 min 0,000 mm 0 W/m -1,5 C 2,5 C 6,4 km/h (2 Bft) 100 %
12.02.2022 20:30 2,5 C 2,5 C 2,5 C 75 % 1024,8 hPa 0,0 l/m 0,2 km/h (0 Bft) O-SO 123 0 min 0,000 mm 0 W/m -1,5 C 2,5 C 4,8 km/h (1 Bft) 91 %
12.02.2022 20:40 2,0 C 2,0 C 2,5 C 76 % 1024,9 hPa 0,0 l/m 0,0 km/h (0 Bft) O-SO 123 0 min 0,000 mm 0 W/m -1,8 C 2,0 C 0,0 km/h (0 Bft) 99 %
12.02.2022 20:50 1,4 C 1,4 C 2,0 C 78 % 1025,0 hPa 0,0 l/m 0,0 km/h (0 Bft) O-SO 123 0 min 0,000 mm 0 W/m -2,0 C 1,4 C 0,0 km/h (0 Bft) 99 %
12.02.2022 21:00 1,1 C 1,1 C 1,4 C 79 % 1024,7 hPa 0,0 l/m 0,0 km/h (0 Bft) O-SO 123 0 min 0,000 mm 0 W/m -2,1 C 1,1 C 0,0 km/h (0 Bft) 100 %
12.02.2022 21:10 0,8 C 0,8 C 1,1 C 81 % 1024,7 hPa 0,0 l/m 0,0 km/h (0 Bft) N 0 0 min 0,000 mm 0 W/m -2,1 C 0,8 C 0,0 km/h (0 Bft) 89 %
12.02.2022 21:20 0,6 C 0,6 C 0,8 C 82 % 1024,7 hPa 0,0 l/m 0,0 km/h (0 Bft) N 0 0 min 0,000 mm 0 W/m -2,1 C 0,6 C 0,0 km/h (0 Bft) 98 %
12.02.2022 21:30 0,3 C 0,3 C 0,6 C 83 % 1024,6 hPa 0,0 l/m 0,0 km/h (0 Bft) N 0 0 min 0,000 mm 0 W/m -2,2 C 0,3 C 0,0 km/h (0 Bft) 99 %
12.02.2022 21:40 0,3 C 0,3 C 0,3 C 83 % 1024,5 hPa 0,0 l/m 0,0 km/h (0 Bft) N 0 0 min 0,000 mm 0 W/m -2,2 C 0,3 C 0,0 km/h (0 Bft) 100 %
12.02.2022 21:50 0,1 C 0,1 C 0,3 C 83 % 1024,3 hPa 0,0 l/m 0,0 km/h (0 Bft) N 0 0 min 0,000 mm 0 W/m -2,4 C 0,1 C 0,0 km/h (0 Bft) 100 %
12.02.2022 22:00 0,0 C 0,0 C 0,2 C 84 % 1024,3 hPa 0,0 l/m 0,0 km/h (0 Bft) N 0 0 min 0,000 mm 0 W/m -2,4 C 0,0 C 0,0 km/h (0 Bft) 99 %
12.02.2022 22:10 -0,2 C -0,2 C 0,0 C 85 % 1024,3 hPa 0,0 l/m 0,0 km/h (0 Bft) N 0 0 min 0,000 mm 0 W/m -2,4 C -0,2 C 0,0 km/h (0 Bft) 100 %
12.02.2022 22:20 -0,3 C -0,3 C -0,2 C 85 % 1024,2 hPa 0,0 l/m 0,0 km/h (0 Bft) N 0 0 min 0,000 mm 0 W/m -2,5 C -0,3 C 0,0 km/h (0 Bft) 100 %
12.02.2022 22:30 -0,6 C -0,6 C -0,3 C 85 % 1024,2 hPa 0,0 l/m 0,0 km/h (0 Bft) N 0 0 min 0,000 mm 0 W/m -2,8 C -0,6 C 0,0 km/h (0 Bft) 100 %
12.02.2022 22:40 -0,7 C -0,7 C -0,6 C 86 % 1024,2 hPa 0,0 l/m 0,0 km/h (0 Bft) N 0 0 min 0,000 mm 0 W/m -2,7 C -0,7 C 0,0 km/h (0 Bft) 100 %
12.02.2022 22:50 -0,8 C -0,8 C -0,7 C 86 % 1024,1 hPa 0,0 l/m 0,0 km/h (0 Bft) N 0 0 min 0,000 mm 0 W/m -2,8 C -0,8 C 0,0 km/h (0 Bft) 100 %
12.02.2022 23:00 -1,0 C -1,0 C -0,8 C 87 % 1024,1 hPa 0,0 l/m 0,0 km/h (0 Bft) N 0 0 min 0,000 mm 0 W/m -2,9 C -1,0 C 0,0 km/h (0 Bft) 100 %
12.02.2022 23:10 -1,1 C -1,1 C -0,9 C 87 % 1024,1 hPa 0,0 l/m 0,0 km/h (0 Bft) N 0 0 min 0,000 mm 0 W/m -3,0 C -1,1 C 0,0 km/h (0 Bft) 100 %
12.02.2022 23:20 -1,2 C -1,2 C -1,1 C 87 % 1024,2 hPa 0,0 l/m 0,0 km/h (0 Bft) N 0 0 min 0,000 mm 0 W/m -3,1 C -1,2 C 0,0 km/h (0 Bft) 100 %
12.02.2022 23:30 -1,3 C -1,3 C -1,2 C 88 % 1024,0 hPa 0,0 l/m 0,0 km/h (0 Bft) N 0 0 min 0,000 mm 0 W/m -3,0 C -1,3 C 0,0 km/h (0 Bft) 100 %
12.02.2022 23:40 -1,4 C -1,4 C -1,3 C 89 % 1024,0 hPa 0,0 l/m 0,0 km/h (0 Bft) N 0 0 min 0,000 mm 0 W/m -3,0 C -1,4 C 0,0 km/h (0 Bft) 100 %
12.02.2022 23:50 -1,4 C -1,5 C -1,4 C 88 % 1023,9 hPa 0,0 l/m 0,0 km/h (0 Bft) N 0 0 min 0,000 mm 0 W/m -3,1 C -1,4 C 0,0 km/h (0 Bft) 100 %
_ Min-Zeit 05:30 05:30 05:40 15:40 23:50 - 00:00 - - - - - 05:30 05:30 00:00 21:10
Minimum _ -4,6 C -4,6 C -4,6 C 59 % 1023,9 hPa - 0,0 km/h (0 Bft) - - - - - -5,7 C -4,6 C 0,0 km/h (0 Bft) 89 %
_ Max-Zeit 15:40 15:10 15:40 00:00 00:20 19:00 10:40 - - 09:10 12:00 11:40 12:40 15:30 14:40 00:20
Maximum _ 6,4 C 6,2 C 6,4 C 92 % 1034,5 hPa 0,2 l/m 4,8 km/h
SO (1 Bft)
- - 10 min 0,152 mm 427 W/m 1,7 C 6,3 C 17,7 km/h
SO (3 Bft)
100 %
Durchschnitt _ 0,5 C 0,4 C 0,6 C 82 % 1029,5 hPa #0,2 l/m 0,8 km/h (0 Bft) O-SO - #6:30 h #0,965 mm 233 W/m -2,4 C 0,5 C 4,6 km/h (1 Bft) 99 %
PRIVATE WETTERSTATION BILLIGHEIM-ALLFELD - www.neckar-odenwald-wetter.de - Holger Sonntag